sensor_id;sensor_type;location;lat;lon;timestamp;pressure;altitude;pressure_sealevel;temperature;humidity
74794;BME280;63320;50.768;6.724;2024-01-30T00:01:24;101423.66;;;6.78;nan
74794;BME280;63320;50.768;6.724;2024-01-30T00:03:49;101411.44;;;6.77;nan
74794;BME280;63320;50.768;6.724;2024-01-30T00:06:14;101420.22;;;6.73;nan
74794;BME280;63320;50.768;6.724;2024-01-30T00:08:39;101414.13;;;6.74;nan
74794;BME280;63320;50.768;6.724;2024-01-30T00:11:05;101409.69;;;6.79;nan
74794;BME280;63320;50.768;6.724;2024-01-30T00:13:31;101413.09;;;6.83;nan
74794;BME280;63320;50.768;6.724;2024-01-30T00:15:57;101406.22;;;6.79;nan
74794;BME280;63320;50.768;6.724;2024-01-30T00:18:22;101407.88;;;6.84;nan
74794;BME280;63320;50.768;6.724;2024-01-30T00:20:47;101405.47;;;6.67;nan
74794;BME280;63320;50.768;6.724;2024-01-30T00:23:13;101406.19;;;6.80;nan
74794;BME280;63320;50.768;6.724;2024-01-30T00:25:38;101407.81;;;6.87;nan
74794;BME280;63320;50.768;6.724;2024-01-30T00:28:04;101401.78;;;6.84;nan
74794;BME280;63320;50.768;6.724;2024-01-30T00:30:30;101401.56;;;6.99;nan
74794;BME280;63320;50.768;6.724;2024-01-30T00:32:56;101404.91;;;7.09;nan
74794;BME280;63320;50.768;6.724;2024-01-30T00:35:21;101401.34;;;7.13;nan
74794;BME280;63320;50.768;6.724;2024-01-30T00:37:46;101405.66;;;7.18;nan
74794;BME280;63320;50.768;6.724;2024-01-30T00:40:12;101403.84;;;7.20;nan
74794;BME280;63320;50.768;6.724;2024-01-30T00:42:37;101403.81;;;7.23;nan
74794;BME280;63320;50.768;6.724;2024-01-30T00:45:03;101408.16;;;7.24;nan
74794;BME280;63320;50.768;6.724;2024-01-30T00:47:30;101400.31;;;7.24;nan
74794;BME280;63320;50.768;6.724;2024-01-30T00:49:56;101395.09;;;7.24;nan
74794;BME280;63320;50.768;6.724;2024-01-30T00:52:22;101394.28;;;7.19;nan
74794;BME280;63320;50.768;6.724;2024-01-30T00:54:47;101389.06;;;7.19;nan
74794;BME280;63320;50.768;6.724;2024-01-30T00:57:12;101389.88;;;7.21;nan
74794;BME280;63320;50.768;6.724;2024-01-30T00:59:38;101389.00;;;7.22;nan
74794;BME280;63320;50.768;6.724;2024-01-30T01:02:03;101382.38;;;7.00;nan
74794;BME280;63320;50.768;6.724;2024-01-30T01:04:30;101390.13;;;7.06;nan
74794;BME280;63320;50.768;6.724;2024-01-30T01:06:55;101395.31;;;7.09;nan
74794;BME280;63320;50.768;6.724;2024-01-30T01:09:21;101394.41;;;7.10;nan
74794;BME280;63320;50.768;6.724;2024-01-30T01:11:46;101392.63;;;7.12;nan
74794;BME280;63320;50.768;6.724;2024-01-30T01:14:12;101388.19;;;7.17;nan
74794;BME280;63320;50.768;6.724;2024-01-30T01:16:37;101393.34;;;7.22;nan
74794;BME280;63320;50.768;6.724;2024-01-30T01:19:02;101385.81;;;7.04;nan
74794;BME280;63320;50.768;6.724;2024-01-30T01:21:29;101384.72;;;7.17;nan
74794;BME280;63320;50.768;6.724;2024-01-30T01:23:54;101390.06;;;7.11;nan
74794;BME280;63320;50.768;6.724;2024-01-30T01:26:19;101390.00;;;7.15;nan
74794;BME280;63320;50.768;6.724;2024-01-30T01:28:45;101394.28;;;7.19;nan
74794;BME280;63320;50.768;6.724;2024-01-30T01:31:10;101389.94;;;7.18;nan
74794;BME280;63320;50.768;6.724;2024-01-30T01:33:35;101393.28;;;7.28;nan
74794;BME280;63320;50.768;6.724;2024-01-30T01:36:01;101392.41;;;7.27;nan
74794;BME280;63320;50.768;6.724;2024-01-30T01:38:27;101387.16;;;7.27;nan
74794;BME280;63320;50.768;6.724;2024-01-30T01:40:53;101386.16;;;7.36;nan
74794;BME280;63320;50.768;6.724;2024-01-30T01:43:18;101381.78;;;7.38;nan
74794;BME280;63320;50.768;6.724;2024-01-30T01:45:43;101383.53;;;7.36;nan
74794;BME280;63320;50.768;6.724;2024-01-30T01:48:09;101381.78;;;7.37;nan
74794;BME280;63320;50.768;6.724;2024-01-30T01:50:35;101384.47;;;7.34;nan
74794;BME280;63320;50.768;6.724;2024-01-30T01:53:01;101379.34;;;7.26;nan
74794;BME280;63320;50.768;6.724;2024-01-30T01:55:29;101383.75;;;7.22;nan
74794;BME280;63320;50.768;6.724;2024-01-30T01:57:56;101377.66;;;7.22;nan
74794;BME280;63320;50.768;6.724;2024-01-30T02:00:22;101375.94;;;7.21;nan
74794;BME280;63320;50.768;6.724;2024-01-30T02:02:49;101374.19;;;7.23;nan
74794;BME280;63320;50.768;6.724;2024-01-30T02:05:16;101376.69;;;7.27;nan
74794;BME280;63320;50.768;6.724;2024-01-30T02:07:42;101374.06;;;7.31;nan
74794;BME280;63320;50.768;6.724;2024-01-30T02:10:08;101372.16;;;7.40;nan
74794;BME280;63320;50.768;6.724;2024-01-30T02:12:35;101374.75;;;7.40;nan
74794;BME280;63320;50.768;6.724;2024-01-30T02:15:00;101368.66;;;7.40;nan
74794;BME280;63320;50.768;6.724;2024-01-30T02:17:26;101368.59;;;7.43;nan
74794;BME280;63320;50.768;6.724;2024-01-30T02:19:52;101370.34;;;7.44;nan
74794;BME280;63320;50.768;6.724;2024-01-30T02:22:19;101365.13;;;7.42;nan
74794;BME280;63320;50.768;6.724;2024-01-30T02:24:44;101373.84;;;7.43;nan
74794;BME280;63320;50.768;6.724;2024-01-30T02:27:10;101369.56;;;7.39;nan
74794;BME280;63320;50.768;6.724;2024-01-30T02:29:35;101369.53;;;7.40;nan
74794;BME280;63320;50.768;6.724;2024-01-30T02:32:00;101359.34;;;7.23;nan
74794;BME280;63320;50.768;6.724;2024-01-30T02:34:26;101361.88;;;7.30;nan
74794;BME280;63320;50.768;6.724;2024-01-30T02:36:51;101355.63;;;7.37;nan
74794;BME280;63320;50.768;6.724;2024-01-30T02:39:18;101366.28;;;7.26;nan
74794;BME280;63320;50.768;6.724;2024-01-30T02:41:43;101366.63;;;7.05;nan
74794;BME280;63320;50.768;6.724;2024-01-30T02:44:08;101363.94;;;7.08;nan
74794;BME280;63320;50.768;6.724;2024-01-30T02:46:34;101363.25;;;6.98;nan
74794;BME280;63320;50.768;6.724;2024-01-30T02:48:59;101364.97;;;6.99;nan
74794;BME280;63320;50.768;6.724;2024-01-30T02:51:24;101358.09;;;6.90;nan
74794;BME280;63320;50.768;6.724;2024-01-30T02:53:50;101359.88;;;6.90;nan
74794;BME280;63320;50.768;6.724;2024-01-30T02:56:16;101354.09;;;6.66;nan
74794;BME280;63320;50.768;6.724;2024-01-30T02:58:42;101352.41;;;6.64;nan
74794;BME280;63320;50.768;6.724;2024-01-30T03:01:07;101354.88;;;6.71;nan
74794;BME280;63320;50.768;6.724;2024-01-30T03:03:32;101350.56;;;6.70;nan
74794;BME280;63320;50.768;6.724;2024-01-30T03:05:58;101343.41;;;6.83;nan
74794;BME280;63320;50.768;6.724;2024-01-30T03:08:23;101351.25;;;6.82;nan
74794;BME280;63320;50.768;6.724;2024-01-30T03:10:49;101349.31;;;6.96;nan
74794;BME280;63320;50.768;6.724;2024-01-30T03:13:15;101351.06;;;6.95;nan
74794;BME280;63320;50.768;6.724;2024-01-30T03:15:41;101346.53;;;7.07;nan
74794;BME280;63320;50.768;6.724;2024-01-30T03:18:06;101350.84;;;7.08;nan
74794;BME280;63320;50.768;6.724;2024-01-30T03:20:31;101337.78;;;7.09;nan
74794;BME280;63320;50.768;6.724;2024-01-30T03:22:57;101347.38;;;7.07;nan
74794;BME280;63320;50.768;6.724;2024-01-30T03:25:24;101347.63;;;6.92;nan
74794;BME280;63320;50.768;6.724;2024-01-30T03:27:50;101348.38;;;7.00;nan
74794;BME280;63320;50.768;6.724;2024-01-30T03:30:16;101335.16;;;7.09;nan
74794;BME280;63320;50.768;6.724;2024-01-30T03:32:42;101343.13;;;7.03;nan
74794;BME280;63320;50.768;6.724;2024-01-30T03:35:08;101341.22;;;7.11;nan
74794;BME280;63320;50.768;6.724;2024-01-30T03:37:33;101335.16;;;7.09;nan
74794;BME280;63320;50.768;6.724;2024-01-30T03:39:59;101336.88;;;7.10;nan
74794;BME280;63320;50.768;6.724;2024-01-30T03:42:24;101337.66;;;7.15;nan
74794;BME280;63320;50.768;6.724;2024-01-30T03:44:49;101334.09;;;7.21;nan
74794;BME280;63320;50.768;6.724;2024-01-30T03:47:16;101334.91;;;7.24;nan
74794;BME280;63320;50.768;6.724;2024-01-30T03:49:41;101332.31;;;7.24;nan
74794;BME280;63320;50.768;6.724;2024-01-30T03:52:07;101328.81;;;7.24;nan
74794;BME280;63320;50.768;6.724;2024-01-30T03:54:32;101335.03;;;7.17;nan
74794;BME280;63320;50.768;6.724;2024-01-30T03:56:57;101339.41;;;7.18;nan
74794;BME280;63320;50.768;6.724;2024-01-30T03:59:23;101330.72;;;7.14;nan
74794;BME280;63320;50.768;6.724;2024-01-30T04:01:48;101330.63;;;7.20;nan
74794;BME280;63320;50.768;6.724;2024-01-30T04:04:15;101332.41;;;7.18;nan
74794;BME280;63320;50.768;6.724;2024-01-30T04:06:40;101339.31;;;7.21;nan
74794;BME280;63320;50.768;6.724;2024-01-30T04:09:05;101328.03;;;7.19;nan
74794;BME280;63320;50.768;6.724;2024-01-30T04:11:30;101325.38;;;7.20;nan
74794;BME280;63320;50.768;6.724;2024-01-30T04:13:56;101325.47;;;7.16;nan
74794;BME280;63320;50.768;6.724;2024-01-30T04:16:22;101320.19;;;7.17;nan
74794;BME280;63320;50.768;6.724;2024-01-30T04:18:47;101322.88;;;7.14;nan
74794;BME280;63320;50.768;6.724;2024-01-30T04:21:14;101312.41;;;7.13;nan
74794;BME280;63320;50.768;6.724;2024-01-30T04:23:40;101325.75;;;6.99;nan
74794;BME280;63320;50.768;6.724;2024-01-30T04:26:05;101316.84;;;7.09;nan
74794;BME280;63320;50.768;6.724;2024-01-30T04:28:31;101320.44;;;7.02;nan
74794;BME280;63320;50.768;6.724;2024-01-30T04:30:56;101319.53;;;7.05;nan
74794;BME280;63320;50.768;6.724;2024-01-30T04:33:21;101328.25;;;7.05;nan
74794;BME280;63320;50.768;6.724;2024-01-30T04:35:47;101324.81;;;7.03;nan
74794;BME280;63320;50.768;6.724;2024-01-30T04:38:14;101330.78;;;7.10;nan
74794;BME280;63320;50.768;6.724;2024-01-30T04:40:39;101327.19;;;7.17;nan
74794;BME280;63320;50.768;6.724;2024-01-30T04:43:04;101325.38;;;7.20;nan
74794;BME280;63320;50.768;6.724;2024-01-30T04:45:29;101332.41;;;7.18;nan
74794;BME280;63320;50.768;6.724;2024-01-30T04:47:55;101330.59;;;7.22;nan
74794;BME280;63320;50.768;6.724;2024-01-30T04:50:20;101334.06;;;7.24;nan
74794;BME280;63320;50.768;6.724;2024-01-30T04:52:45;101333.13;;;7.28;nan
74794;BME280;63320;50.768;6.724;2024-01-30T04:55:12;101325.19;;;7.31;nan
74794;BME280;63320;50.768;6.724;2024-01-30T04:57:38;101321.66;;;7.35;nan
74794;BME280;63320;50.768;6.724;2024-01-30T05:00:04;101321.66;;;7.35;nan
74794;BME280;63320;50.768;6.724;2024-01-30T05:02:29;101312.16;;;7.30;nan
74794;BME280;63320;50.768;6.724;2024-01-30T05:04:54;101317.66;;;7.13;nan
74794;BME280;63320;50.768;6.724;2024-01-30T05:07:20;101315.03;;;7.13;nan
74794;BME280;63320;50.768;6.724;2024-01-30T05:09:45;101317.56;;;7.19;nan
74794;BME280;63320;50.768;6.724;2024-01-30T05:12:12;101324.44;;;7.24;nan
74794;BME280;63320;50.768;6.724;2024-01-30T05:14:37;101315.66;;;7.27;nan
74794;BME280;63320;50.768;6.724;2024-01-30T05:17:02;101318.44;;;7.19;nan
74794;BME280;63320;50.768;6.724;2024-01-30T05:19:28;101319.34;;;7.17;nan
74794;BME280;63320;50.768;6.724;2024-01-30T05:21:53;101311.50;;;7.15;nan
74794;BME280;63320;50.768;6.724;2024-01-30T05:24:18;101319.38;;;7.15;nan
74794;BME280;63320;50.768;6.724;2024-01-30T05:26:44;101305.34;;;7.19;nan
74794;BME280;63320;50.768;6.724;2024-01-30T05:29:10;101305.38;;;7.18;nan
74794;BME280;63320;50.768;6.724;2024-01-30T05:31:36;101313.25;;;7.18;nan
74794;BME280;63320;50.768;6.724;2024-01-30T05:34:01;101313.16;;;7.21;nan
74794;BME280;63320;50.768;6.724;2024-01-30T05:36:27;101328.00;;;7.20;nan
74794;BME280;63320;50.768;6.724;2024-01-30T05:38:52;101317.50;;;7.22;nan
74794;BME280;63320;50.768;6.724;2024-01-30T05:41:17;101310.50;;;7.22;nan
74794;BME280;63320;50.768;6.724;2024-01-30T05:43:43;101309.56;;;7.26;nan
74794;BME280;63320;50.768;6.724;2024-01-30T05:46:09;101314.69;;;7.33;nan
74794;BME280;63320;50.768;6.724;2024-01-30T05:48:35;101315.59;;;7.32;nan
74794;BME280;63320;50.768;6.724;2024-01-30T05:51:00;101308.56;;;7.35;nan
74794;BME280;63320;50.768;6.724;2024-01-30T05:53:25;101304.19;;;7.36;nan
74794;BME280;63320;50.768;6.724;2024-01-30T05:55:51;101308.53;;;7.37;nan
74794;BME280;63320;50.768;6.724;2024-01-30T05:58:16;101305.06;;;7.36;nan
74794;BME280;63320;50.768;6.724;2024-01-30T06:00:42;101297.16;;;7.39;nan
74794;BME280;63320;50.768;6.724;2024-01-30T06:03:08;101300.69;;;7.37;nan
74794;BME280;63320;50.768;6.724;2024-01-30T06:05:34;101302.41;;;7.38;nan
74794;BME280;63320;50.768;6.724;2024-01-30T06:07:59;101299.69;;;7.42;nan
74794;BME280;63320;50.768;6.724;2024-01-30T06:10:24;101304.06;;;7.42;nan
74794;BME280;63320;50.768;6.724;2024-01-30T06:12:50;101299.78;;;7.38;nan
74794;BME280;63320;50.768;6.724;2024-01-30T06:15:15;101300.75;;;7.32;nan
74794;BME280;63320;50.768;6.724;2024-01-30T06:17:40;101303.56;;;7.23;nan
74794;BME280;63320;50.768;6.724;2024-01-30T06:20:07;101304.34;;;7.26;nan
74794;BME280;63320;50.768;6.724;2024-01-30T06:22:33;101306.13;;;7.24;nan
74794;BME280;63320;50.768;6.724;2024-01-30T06:24:58;101297.41;;;7.25;nan
74794;BME280;63320;50.768;6.724;2024-01-30T06:27:23;101290.38;;;7.29;nan
74794;BME280;63320;50.768;6.724;2024-01-30T06:29:49;101296.38;;;7.33;nan
74794;BME280;63320;50.768;6.724;2024-01-30T06:32:14;101290.28;;;7.32;nan
74794;BME280;63320;50.768;6.724;2024-01-30T06:34:40;101285.13;;;7.29;nan
74794;BME280;63320;50.768;6.724;2024-01-30T06:37:07;101286.94;;;7.25;nan
74794;BME280;63320;50.768;6.724;2024-01-30T06:39:32;101287.91;;;7.20;nan
74794;BME280;63320;50.768;6.724;2024-01-30T06:41:57;101288.75;;;7.20;nan
74794;BME280;63320;50.768;6.724;2024-01-30T06:44:23;101294.09;;;7.14;nan
74794;BME280;63320;50.768;6.724;2024-01-30T06:46:48;101290.88;;;7.49;nan
74794;BME280;63320;50.768;6.724;2024-01-30T06:49:13;101280.66;;;7.36;nan
74794;BME280;63320;50.768;6.724;2024-01-30T06:51:39;101285.91;;;7.33;nan
74794;BME280;63320;50.768;6.724;2024-01-30T06:54:06;101279.97;;;7.24;nan
74794;BME280;63320;50.768;6.724;2024-01-30T06:56:31;101284.34;;;7.22;nan
74794;BME280;63320;50.768;6.724;2024-01-30T06:58:56;101278.22;;;7.25;nan
74794;BME280;63320;50.768;6.724;2024-01-30T07:01:27;101278.22;;;7.25;nan
74794;BME280;63320;50.768;6.724;2024-01-30T07:03:53;101282.63;;;7.21;nan
74794;BME280;63320;50.768;6.724;2024-01-30T07:06:18;101284.47;;;7.16;nan
74794;BME280;63320;50.768;6.724;2024-01-30T07:08:45;101297.44;;;7.22;nan
74794;BME280;63320;50.768;6.724;2024-01-30T07:11:18;101286.97;;;7.24;nan
74794;BME280;63320;50.768;6.724;2024-01-30T07:13:43;101286.88;;;7.29;nan
74794;BME280;63320;50.768;6.724;2024-01-30T07:16:09;101286.69;;;7.38;nan
74794;BME280;63320;50.768;6.724;2024-01-30T07:18:34;101289.13;;;7.50;nan
74794;BME280;63320;50.768;6.724;2024-01-30T07:20:59;101290.78;;;7.54;nan
74794;BME280;63320;50.768;6.724;2024-01-30T07:23:24;101296.06;;;7.51;nan
74794;BME280;63320;50.768;6.724;2024-01-30T07:25:50;101297.78;;;7.53;nan
74794;BME280;63320;50.768;6.724;2024-01-30T07:28:16;101300.41;;;7.53;nan
74794;BME280;63320;50.768;6.724;2024-01-30T07:30:42;101296.84;;;7.56;nan
74794;BME280;63320;50.768;6.724;2024-01-30T07:33:07;101296.81;;;7.58;nan
74794;BME280;63320;50.768;6.724;2024-01-30T07:35:33;101298.72;;;7.49;nan
74794;BME280;63320;50.768;6.724;2024-01-30T07:37:58;101306.53;;;7.51;nan
74794;BME280;63320;50.768;6.724;2024-01-30T07:40:23;101310.88;;;7.52;nan
74794;BME280;63320;50.768;6.724;2024-01-30T07:42:49;101307.47;;;7.48;nan
74794;BME280;63320;50.768;6.724;2024-01-30T07:45:15;101310.91;;;7.50;nan
74794;BME280;63320;50.768;6.724;2024-01-30T07:47:41;101309.16;;;7.51;nan
74794;BME280;63320;50.768;6.724;2024-01-30T07:50:07;101303.09;;;7.49;nan
74794;BME280;63320;50.768;6.724;2024-01-30T07:52:33;101309.13;;;7.52;nan
74794;BME280;63320;50.768;6.724;2024-01-30T07:54:58;101310.00;;;7.53;nan
74794;BME280;63320;50.768;6.724;2024-01-30T07:57:23;101316.03;;;7.57;nan
74794;BME280;63320;50.768;6.724;2024-01-30T07:59:49;101308.25;;;7.52;nan
74794;BME280;63320;50.768;6.724;2024-01-30T08:02:15;101323.09;;;7.53;nan
74794;BME280;63320;50.768;6.724;2024-01-30T08:04:41;101328.31;;;7.53;nan
74794;BME280;63320;50.768;6.724;2024-01-30T08:07:06;101325.72;;;7.53;nan
74794;BME280;63320;50.768;6.724;2024-01-30T08:09:32;101332.63;;;7.56;nan
74794;BME280;63320;50.768;6.724;2024-01-30T08:11:57;101330.00;;;7.56;nan
74794;BME280;63320;50.768;6.724;2024-01-30T08:14:22;101332.56;;;7.60;nan
74794;BME280;63320;50.768;6.724;2024-01-30T08:16:48;101322.97;;;7.58;nan
74794;BME280;63320;50.768;6.724;2024-01-30T08:19:15;101335.13;;;7.62;nan
74794;BME280;63320;50.768;6.724;2024-01-30T08:21:40;101325.56;;;7.61;nan
74794;BME280;63320;50.768;6.724;2024-01-30T08:24:07;101323.81;;;7.61;nan
74794;BME280;63320;50.768;6.724;2024-01-30T08:26:32;101329.13;;;7.57;nan
74794;BME280;63320;50.768;6.724;2024-01-30T08:28:58;101322.06;;;7.60;nan
74794;BME280;63320;50.768;6.724;2024-01-30T08:31:23;101324.56;;;7.66;nan
74794;BME280;63320;50.768;6.724;2024-01-30T08:33:49;101315.34;;;7.93;nan
74794;BME280;63320;50.768;6.724;2024-01-30T08:36:16;101321.66;;;7.82;nan
74794;BME280;63320;50.768;6.724;2024-01-30T08:38:41;101321.84;;;7.72;nan
74794;BME280;63320;50.768;6.724;2024-01-30T08:41:07;101326.97;;;7.78;nan
74794;BME280;63320;50.768;6.724;2024-01-30T08:43:32;101329.53;;;7.83;nan
74794;BME280;63320;50.768;6.724;2024-01-30T08:45:58;101320.59;;;8.37;nan
74794;BME280;63320;50.768;6.724;2024-01-30T08:48:24;101330.91;;;8.01;nan
74794;BME280;63320;50.768;6.724;2024-01-30T08:50:49;101334.47;;;7.97;nan
74794;BME280;63320;50.768;6.724;2024-01-30T08:53:16;101332.03;;;9.10;nan
74794;BME280;63320;50.768;6.724;2024-01-30T08:55:41;101345.94;;;8.36;nan
74794;BME280;63320;50.768;6.724;2024-01-30T08:58:06;101344.53;;;8.18;nan
74794;BME280;63320;50.768;6.724;2024-01-30T09:00:32;101348.13;;;8.14;nan
74794;BME280;63320;50.768;6.724;2024-01-30T09:02:57;101341.28;;;8.05;nan
74794;BME280;63320;50.768;6.724;2024-01-30T09:05:22;101339.41;;;8.12;nan
74794;BME280;63320;50.768;6.724;2024-01-30T09:07:48;101339.34;;;8.15;nan
74794;BME280;63320;50.768;6.724;2024-01-30T09:10:15;101345.44;;;8.16;nan
74794;BME280;63320;50.768;6.724;2024-01-30T09:12:40;101348.94;;;8.16;nan
74794;BME280;63320;50.768;6.724;2024-01-30T09:15:06;101357.66;;;8.18;nan
74794;BME280;63320;50.768;6.724;2024-01-30T09:17:31;101355.81;;;8.22;nan
74794;BME280;63320;50.768;6.724;2024-01-30T09:19:57;101364.38;;;8.30;nan
74794;BME280;63320;50.768;6.724;2024-01-30T09:22:22;101367.00;;;8.30;nan
74794;BME280;63320;50.768;6.724;2024-01-30T09:24:47;101366.34;;;8.62;nan
74794;BME280;63320;50.768;6.724;2024-01-30T09:27:14;101378.88;;;8.49;nan
74794;BME280;63320;50.768;6.724;2024-01-30T09:29:39;101384.94;;;8.51;nan
74794;BME280;63320;50.768;6.724;2024-01-30T09:32:06;101374.50;;;8.50;nan
74794;BME280;63320;50.768;6.724;2024-01-30T09:34:31;101381.97;;;8.67;nan
74794;BME280;63320;50.768;6.724;2024-01-30T09:36:56;101383.78;;;8.65;nan
74794;BME280;63320;50.768;6.724;2024-01-30T09:39:22;101390.06;;;8.56;nan
74794;BME280;63320;50.768;6.724;2024-01-30T09:41:49;101391.66;;;8.63;nan
74794;BME280;63320;50.768;6.724;2024-01-30T09:44:16;101392.66;;;8.59;nan
74794;BME280;63320;50.768;6.724;2024-01-30T09:46:43;101392.75;;;8.53;nan
74794;BME280;63320;50.768;6.724;2024-01-30T09:49:11;101395.28;;;8.98;nan
74794;BME280;63320;50.768;6.724;2024-01-30T09:51:37;101403.25;;;8.53;nan
74794;BME280;63320;50.768;6.724;2024-01-30T09:54:03;101403.97;;;8.61;nan
74794;BME280;63320;50.768;6.724;2024-01-30T09:56:29;101403.84;;;8.66;nan
74794;BME280;63320;50.768;6.724;2024-01-30T09:58:54;101411.00;;;8.57;nan
74794;BME280;63320;50.768;6.724;2024-01-30T10:01:22;101398.97;;;8.49;nan
74794;BME280;63320;50.768;6.724;2024-01-30T10:03:47;101407.28;;;8.69;nan
74794;BME280;63320;50.768;6.724;2024-01-30T10:06:13;101408.47;;;8.53;nan
74794;BME280;63320;50.768;6.724;2024-01-30T10:08:39;101407.03;;;8.38;nan
74794;BME280;63320;50.768;6.724;2024-01-30T10:11:04;101413.59;;;8.61;nan
74794;BME280;63320;50.768;6.724;2024-01-30T10:13:29;101412.88;;;8.52;nan
74794;BME280;63320;50.768;6.724;2024-01-30T10:15:55;101405.31;;;9.18;nan
74794;BME280;63320;50.768;6.724;2024-01-30T10:18:22;101411.38;;;9.21;nan
74794;BME280;63320;50.768;6.724;2024-01-30T10:20:47;101406.44;;;9.43;nan
74794;BME280;63320;50.768;6.724;2024-01-30T10:23:13;101397.53;;;9.50;nan
74794;BME280;63320;50.768;6.724;2024-01-30T10:25:38;101401.72;;;9.57;nan
74794;BME280;63320;50.768;6.724;2024-01-30T10:28:04;101400.56;;;9.69;nan
74794;BME280;63320;50.768;6.724;2024-01-30T10:30:29;101403.25;;;9.66;nan
74794;BME280;63320;50.768;6.724;2024-01-30T10:32:55;101411.97;;;9.68;nan
74794;BME280;63320;50.768;6.724;2024-01-30T10:35:21;101413.84;;;9.63;nan
74794;BME280;63320;50.768;6.724;2024-01-30T10:37:47;101410.13;;;9.72;nan
74794;BME280;63320;50.768;6.724;2024-01-30T10:40:13;101407.09;;;9.87;nan
74794;BME280;63320;50.768;6.724;2024-01-30T10:42:42;101411.66;;;9.80;nan
74794;BME280;63320;50.768;6.724;2024-01-30T10:45:09;101402.41;;;10.00;nan
74794;BME280;63320;50.768;6.724;2024-01-30T10:47:35;101392.88;;;10.28;nan
74794;BME280;63320;50.768;6.724;2024-01-30T10:50:02;101397.34;;;10.23;nan
74794;BME280;63320;50.768;6.724;2024-01-30T10:52:29;101394.56;;;10.31;nan
74794;BME280;63320;50.768;6.724;2024-01-30T10:54:54;101397.91;;;10.03;nan
74794;BME280;63320;50.768;6.724;2024-01-30T10:57:23;101403.28;;;10.62;nan
74794;BME280;63320;50.768;6.724;2024-01-30T10:59:49;101406.50;;;10.72;nan
74794;BME280;63320;50.768;6.724;2024-01-30T11:02:15;101400.06;;;10.53;nan
74794;BME280;63320;50.768;6.724;2024-01-30T11:04:41;101406.16;;;10.22;nan
74794;BME280;63320;50.768;6.724;2024-01-30T11:07:16;101398.94;;;9.98;nan
74794;BME280;63320;50.768;6.724;2024-01-30T11:09:48;101399.03;;;9.95;nan
74794;BME280;63320;50.768;6.724;2024-01-30T11:12:13;101397.34;;;10.23;nan
74794;BME280;63320;50.768;6.724;2024-01-30T11:14:39;101388.63;;;10.54;nan
74794;BME280;63320;50.768;6.724;2024-01-30T11:17:04;101396.34;;;10.30;nan
74794;BME280;63320;50.768;6.724;2024-01-30T11:19:31;101402.69;;;10.82;nan
74794;BME280;63320;50.768;6.724;2024-01-30T11:21:56;101399.75;;;10.63;nan
74794;BME280;63320;50.768;6.724;2024-01-30T11:24:21;101395.72;;;10.81;nan
74794;BME280;63320;50.768;6.724;2024-01-30T11:26:49;101397.06;;;10.95;nan
74794;BME280;63320;50.768;6.724;2024-01-30T11:29:14;101391.34;;;11.08;nan
74794;BME280;63320;50.768;6.724;2024-01-30T11:31:40;101387.72;;;11.12;nan
74794;BME280;63320;50.768;6.724;2024-01-30T11:34:05;101384.22;;;11.12;nan
74794;BME280;63320;50.768;6.724;2024-01-30T11:36:31;101411.44;;;10.83;nan
74794;BME280;63320;50.768;6.724;2024-01-30T11:38:59;101402.25;;;11.24;nan
74794;BME280;63320;50.768;6.724;2024-01-30T11:41:25;101397.59;;;11.06;nan
74794;BME280;63320;50.768;6.724;2024-01-30T11:43:55;101388.47;;;10.88;nan
74794;BME280;63320;50.768;6.724;2024-01-30T11:46:20;101393.41;;;10.99;nan
74794;BME280;63320;50.768;6.724;2024-01-30T11:48:45;101392.19;;;11.10;nan
74794;BME280;63320;50.768;6.724;2024-01-30T11:51:12;101387.97;;;11.05;nan
74794;BME280;63320;50.768;6.724;2024-01-30T11:53:38;101383.78;;;10.98;nan
74794;BME280;63320;50.768;6.724;2024-01-30T11:56:05;101386.19;;;10.77;nan
74794;BME280;63320;50.768;6.724;2024-01-30T11:58:31;101389.81;;;10.73;nan
74794;BME280;63320;50.768;6.724;2024-01-30T12:00:58;101386.13;;;10.79;nan
74794;BME280;63320;50.768;6.724;2024-01-30T12:03:23;101392.88;;;10.87;nan
74794;BME280;63320;50.768;6.724;2024-01-30T12:05:55;101383.81;;;10.68;nan
74794;BME280;63320;50.768;6.724;2024-01-30T12:08:20;101378.53;;;10.70;nan
74794;BME280;63320;50.768;6.724;2024-01-30T12:10:45;101378.44;;;10.73;nan
74794;BME280;63320;50.768;6.724;2024-01-30T12:13:11;101380.25;;;10.99;nan
74794;BME280;63320;50.768;6.724;2024-01-30T12:15:36;101383.72;;;11.01;nan
74794;BME280;63320;50.768;6.724;2024-01-30T12:18:07;101389.06;;;11.26;nan
74794;BME280;63320;50.768;6.724;2024-01-30T12:20:32;101392.13;;;11.40;nan
74794;BME280;63320;50.768;6.724;2024-01-30T12:22:58;101389.41;;;11.41;nan
74794;BME280;63320;50.768;6.724;2024-01-30T12:25:23;101387.50;;;11.20;nan
74794;BME280;63320;50.768;6.724;2024-01-30T12:27:49;101383.38;;;11.38;nan
74794;BME280;63320;50.768;6.724;2024-01-30T12:30:15;101388.44;;;11.44;nan
74794;BME280;63320;50.768;6.724;2024-01-30T12:32:42;101388.34;;;11.47;nan
74794;BME280;63320;50.768;6.724;2024-01-30T12:35:09;101398.59;;;11.56;nan
74794;BME280;63320;50.768;6.724;2024-01-30T12:37:35;101397.53;;;11.35;nan
74794;BME280;63320;50.768;6.724;2024-01-30T12:40:01;101393.38;;;11.55;nan
74794;BME280;63320;50.768;6.724;2024-01-30T12:42:27;101396.41;;;11.43;nan
74794;BME280;63320;50.768;6.724;2024-01-30T12:44:52;101403.81;;;11.31;nan
74794;BME280;63320;50.768;6.724;2024-01-30T12:47:17;101403.38;;;11.17;nan
74794;BME280;63320;50.768;6.724;2024-01-30T12:49:43;101408.97;;;11.06;nan
74794;BME280;63320;50.768;6.724;2024-01-30T12:52:10;101409.78;;;11.08;nan
74794;BME280;63320;50.768;6.724;2024-01-30T12:54:35;101410.50;;;11.13;nan
74794;BME280;63320;50.768;6.724;2024-01-30T12:57:00;101414.56;;;11.24;nan
74794;BME280;63320;50.768;6.724;2024-01-30T12:59:26;101414.41;;;11.30;nan
74794;BME280;63320;50.768;6.724;2024-01-30T13:01:51;101414.41;;;11.30;nan
74794;BME280;63320;50.768;6.724;2024-01-30T13:04:16;101414.09;;;11.11;nan
74794;BME280;63320;50.768;6.724;2024-01-30T13:06:42;101410.88;;;11.29;nan
74794;BME280;63320;50.768;6.724;2024-01-30T13:09:09;101416.13;;;11.29;nan
74794;BME280;63320;50.768;6.724;2024-01-30T13:11:34;101417.69;;;11.08;nan